createdAt,value
2023-04-09T00:02:22.026Z,71.70
2023-04-09T00:05:08.029Z,71.90
2023-04-09T00:07:54.097Z,72.20
2023-04-09T00:10:40.121Z,72.59
2023-04-09T00:13:37.951Z,72.51
2023-04-09T00:16:25.038Z,72.63
2023-04-09T00:19:11.683Z,73.32
2023-04-09T00:21:57.155Z,73.15
2023-04-09T00:24:42.554Z,73.74
2023-04-09T00:27:27.763Z,73.61
2023-04-09T00:30:13.182Z,73.67
2023-04-09T00:32:58.729Z,73.51
2023-04-09T00:35:44.214Z,73.94
2023-04-09T00:38:29.760Z,73.52
2023-04-09T00:41:15.299Z,73.63
2023-04-09T00:44:00.704Z,73.67
2023-04-09T00:46:46.076Z,73.70
2023-04-09T00:49:31.553Z,73.61
2023-04-09T00:52:17.208Z,72.72
2023-04-09T00:55:05.296Z,72.52
2023-04-09T00:57:50.831Z,73.03
2023-04-09T01:00:36.382Z,72.72
2023-04-09T01:03:21.894Z,73.22
2023-04-09T01:06:32.826Z,73.14
2023-04-09T01:09:39.094Z,73.90
2023-04-09T01:12:34.045Z,74.32
2023-04-09T01:15:25.530Z,74.62
2023-04-09T01:18:19.421Z,75.23
2023-04-09T01:21:17.969Z,75.48
2023-04-09T01:24:23.424Z,75.59
2023-04-09T01:27:09.635Z,75.99
2023-04-09T01:30:18.095Z,76.21
2023-04-09T01:33:06.124Z,76.25
2023-04-09T01:35:54.004Z,76.37
2023-04-09T01:38:42.140Z,76.46
2023-04-09T01:41:28.160Z,76.10
2023-04-09T01:44:14.214Z,76.33
2023-04-09T01:47:00.693Z,75.58
2023-04-09T01:49:46.308Z,75.83
2023-04-09T01:52:31.821Z,75.40
2023-04-09T01:55:17.396Z,75.67
2023-04-09T01:58:02.724Z,75.54
2023-04-09T02:00:49.268Z,75.62
2023-04-09T02:03:39.766Z,75.09
2023-04-09T02:06:40.081Z,74.88
2023-04-09T02:09:29.603Z,74.91
2023-04-09T02:12:19.168Z,74.61
2023-04-09T02:15:07.332Z,74.88
2023-04-09T02:17:53.554Z,74.48
2023-04-09T02:20:38.830Z,74.67
2023-04-09T02:23:24.960Z,74.30
2023-04-09T02:26:10.627Z,74.39
2023-04-09T02:28:55.937Z,74.51
2023-04-09T02:31:41.199Z,74.81
2023-04-09T02:34:26.921Z,74.85
2023-04-09T02:37:12.529Z,74.73
2023-04-09T02:39:57.996Z,74.40
2023-04-09T02:42:43.384Z,75.13
2023-04-09T02:45:29.224Z,74.70
2023-04-09T02:48:14.636Z,75.21
2023-04-09T02:51:04.528Z,75.13
2023-04-09T02:53:49.876Z,75.16
2023-04-09T02:56:35.573Z,75.14
2023-04-09T02:59:20.881Z,75.18
2023-04-09T03:02:06.453Z,75.27
2023-04-09T03:04:53.108Z,75.32
2023-04-09T03:07:38.660Z,75.43
2023-04-09T03:10:24.063Z,75.50
2023-04-09T03:13:09.698Z,75.10
2023-04-09T03:15:55.038Z,75.19
2023-04-09T03:18:40.704Z,75.34
2023-04-09T03:21:27.003Z,75.31
2023-04-09T03:24:12.683Z,75.04
2023-04-09T03:26:59.394Z,74.87
2023-04-09T03:29:45.228Z,74.76
2023-04-09T03:32:32.112Z,75.18
2023-04-09T03:35:17.546Z,74.87
2023-04-09T03:38:04.321Z,74.95
2023-04-09T03:40:50.832Z,74.90
2023-04-09T03:43:36.390Z,74.46
2023-04-09T03:46:22.898Z,74.28
2023-04-09T03:49:08.472Z,74.09
2023-04-09T03:52:00.800Z,74.00
2023-04-09T03:54:54.108Z,74.31
2023-04-09T03:57:42.759Z,74.19
2023-04-09T04:00:32.622Z,74.63
2023-04-09T04:03:47.986Z,74.46
2023-04-09T04:06:40.833Z,74.85
2023-04-09T04:09:45.319Z,74.61
2023-04-09T04:12:35.407Z,74.84
2023-04-09T04:15:28.837Z,75.24
2023-04-09T04:18:15.562Z,75.20
2023-04-09T04:21:15.716Z,75.41
2023-04-09T04:24:06.066Z,75.46
2023-04-09T04:26:51.478Z,75.65
2023-04-09T04:29:38.948Z,75.71
2023-04-09T04:32:37.503Z,75.54
2023-04-09T04:35:27.419Z,75.86
2023-04-09T04:38:16.669Z,75.89
2023-04-09T04:41:02.984Z,75.92
2023-04-09T04:43:49.969Z,75.90
2023-04-09T04:46:40.591Z,76.23
2023-04-09T04:49:26.226Z,76.13
2023-04-09T04:52:11.883Z,76.25
2023-04-09T04:55:01.499Z,76.25
2023-04-09T04:57:47.367Z,76.08
2023-04-09T05:00:32.837Z,76.57
2023-04-09T05:03:21.573Z,76.56
2023-04-09T05:06:32.326Z,76.46
2023-04-09T05:09:22.358Z,76.73
2023-04-09T05:12:24.706Z,76.74
2023-04-09T05:15:11.702Z,76.78
2023-04-09T05:17:58.104Z,76.76
2023-04-09T05:20:43.914Z,77.01
2023-04-09T05:23:29.349Z,77.52
2023-04-09T05:26:14.760Z,77.72
2023-04-09T05:29:08.793Z,77.24
2023-04-09T05:31:55.912Z,76.93
2023-04-09T05:34:50.306Z,76.96
2023-04-09T05:37:35.913Z,77.51
2023-04-09T05:40:21.860Z,77.98
2023-04-09T05:43:08.987Z,78.16
2023-04-09T05:45:58.983Z,78.49
2023-04-09T05:48:44.892Z,78.75
2023-04-09T05:51:30.890Z,79.04
2023-04-09T05:54:20.033Z,78.99
2023-04-09T05:57:05.937Z,79.02
2023-04-09T05:59:54.851Z,79.18
2023-04-09T06:02:41.283Z,79.35
2023-04-09T06:05:26.669Z,79.29
2023-04-09T06:08:13.009Z,78.47
2023-04-09T06:10:59.178Z,77.69
2023-04-09T06:13:44.807Z,77.01
2023-04-09T06:16:30.596Z,76.89
2023-04-09T06:19:21.122Z,75.83
2023-04-09T06:22:11.176Z,74.51
2023-04-09T06:24:56.890Z,73.70
2023-04-09T06:27:42.705Z,74.02
2023-04-09T06:30:28.075Z,73.42
2023-04-09T06:33:14.441Z,73.85
2023-04-09T06:35:59.955Z,72.95
2023-04-09T06:38:45.886Z,72.29
2023-04-09T06:41:32.387Z,72.89
2023-04-09T06:44:17.929Z,72.49
2023-04-09T06:47:03.470Z,72.81
2023-04-09T06:49:49.031Z,71.38
2023-04-09T06:52:34.286Z,72.32
2023-04-09T06:55:19.872Z,72.21
2023-04-09T06:58:05.774Z,73.03
2023-04-09T07:00:51.521Z,72.71
2023-04-09T07:03:37.464Z,72.71
2023-04-09T07:06:23.292Z,72.67
2023-04-09T07:09:08.862Z,73.14
2023-04-09T07:11:54.143Z,73.08
2023-04-09T07:14:39.638Z,72.75
2023-04-09T07:17:25.166Z,72.45
2023-04-09T07:20:10.851Z,72.94
2023-04-09T07:22:56.521Z,71.77
2023-04-09T07:25:42.394Z,72.86
2023-04-09T07:28:27.853Z,72.32
2023-04-09T07:31:14.372Z,71.93
2023-04-09T07:33:59.711Z,72.19
2023-04-09T07:36:45.804Z,72.72
2023-04-09T07:39:31.661Z,72.15
2023-04-09T07:42:17.266Z,72.49
2023-04-09T07:45:03.460Z,71.58
2023-04-09T07:47:49.040Z,71.99
2023-04-09T07:51:06.591Z,70.66
2023-04-09T07:53:53.185Z,70.09
2023-04-09T07:56:38.926Z,69.03
2023-04-09T07:59:25.140Z,68.55
2023-04-09T08:02:14.333Z,68.56
2023-04-09T08:05:00.906Z,67.94
2023-04-09T08:07:46.551Z,68.03
2023-04-09T08:10:35.429Z,67.82
2023-04-09T08:13:24.665Z,66.28
2023-04-09T08:16:12.804Z,65.34
2023-04-09T08:18:58.486Z,65.00
2023-04-09T08:21:44.402Z,65.52
2023-04-09T08:27:48.773Z,64.56
2023-04-09T08:30:34.594Z,63.80
2023-04-09T08:33:19.991Z,63.97
2023-04-09T08:36:09.298Z,63.49
2023-04-09T08:38:56.649Z,63.30
2023-04-09T08:41:46.503Z,62.47
2023-04-09T08:44:32.059Z,62.92
2023-04-09T08:47:20.686Z,62.54
2023-04-09T08:50:06.674Z,61.57
2023-04-09T08:52:53.195Z,62.30
2023-04-09T08:55:38.764Z,61.05
2023-04-09T08:58:24.830Z,61.86
2023-04-09T09:01:19.862Z,57.28
2023-04-09T09:04:07.915Z,58.45
2023-04-09T09:06:55.551Z,64.33
2023-04-09T09:09:59.046Z,62.55
2023-04-09T09:12:44.373Z,59.21
2023-04-09T09:15:31.028Z,56.43
2023-04-09T09:18:18.477Z,57.79
2023-04-09T09:21:17.864Z,58.23
2023-04-09T09:24:17.007Z,56.90
2023-04-09T09:27:03.116Z,56.30
2023-04-09T09:29:49.030Z,57.49
2023-04-09T09:32:35.305Z,55.92
2023-04-09T09:35:21.937Z,55.99
2023-04-09T09:38:07.694Z,53.71
2023-04-09T09:40:54.864Z,55.29
2023-04-09T09:43:42.990Z,53.83
2023-04-09T09:46:31.002Z,52.50
2023-04-09T09:49:16.601Z,51.00
2023-04-09T09:52:10.387Z,49.13
2023-04-09T09:55:03.244Z,48.18
2023-04-09T09:57:53.807Z,50.21
2023-04-09T10:00:41.026Z,49.81
2023-04-09T10:03:29.316Z,49.44
2023-04-09T10:06:15.766Z,50.05
2023-04-09T10:09:06.396Z,49.29
2023-04-09T10:11:53.057Z,49.92
2023-04-09T10:14:41.614Z,50.75
2023-04-09T10:17:28.689Z,51.31
2023-04-09T10:20:29.152Z,49.29
2023-04-09T10:23:25.116Z,50.66
2023-04-09T10:26:10.870Z,48.74
2023-04-09T10:29:13.919Z,49.63
2023-04-09T10:32:07.694Z,48.79
2023-04-09T10:34:59.468Z,49.38
2023-04-09T10:37:50.655Z,49.51
2023-04-09T10:40:56.562Z,50.58
2023-04-09T10:43:43.754Z,50.11
2023-04-09T10:51:35.896Z,48.95
2023-04-09T10:58:13.717Z,49.64
2023-04-09T11:01:13.573Z,49.21
2023-04-09T11:04:22.138Z,49.56
2023-04-09T11:07:09.093Z,48.66
2023-04-09T11:09:55.183Z,49.09
2023-04-09T11:12:43.794Z,48.34
2023-04-09T11:15:34.675Z,48.72
2023-04-09T11:18:27.998Z,48.02
2023-04-09T11:21:14.842Z,48.35
2023-04-09T11:24:01.047Z,47.88
2023-04-09T11:26:49.225Z,47.80
2023-04-09T11:29:36.266Z,49.35
2023-04-09T11:32:22.903Z,48.39
2023-04-09T11:35:15.761Z,49.01
2023-04-09T11:38:02.275Z,48.14
2023-04-09T11:40:49.223Z,49.12
2023-04-09T11:43:36.803Z,50.09
2023-04-09T11:46:26.201Z,49.04
2023-04-09T11:49:13.850Z,50.47
2023-04-09T11:52:01.858Z,51.18
2023-04-09T11:54:54.197Z,50.21
2023-04-09T11:57:46.283Z,50.34
2023-04-09T12:00:35.128Z,49.57
2023-04-09T12:03:33.727Z,48.79
2023-04-09T12:06:25.718Z,49.51
2023-04-09T12:09:14.337Z,49.74
2023-04-09T12:12:01.762Z,49.66
2023-04-09T12:14:48.006Z,48.82
2023-04-09T12:17:34.591Z,48.53
2023-04-09T12:20:39.685Z,50.17
2023-04-09T12:23:25.975Z,48.69
2023-04-09T12:26:13.211Z,51.62
2023-04-09T12:28:58.651Z,49.08
2023-04-09T12:31:46.352Z,48.53
2023-04-09T12:34:32.698Z,47.62
2023-04-09T12:37:19.064Z,46.30
2023-04-09T12:40:05.599Z,46.42
2023-04-09T12:42:51.793Z,47.92
2023-04-09T12:45:37.876Z,47.27
2023-04-09T12:48:24.422Z,48.05
2023-04-09T12:51:16.977Z,46.51
2023-04-09T12:54:04.136Z,46.25
2023-04-09T12:56:50.314Z,46.19
2023-04-09T12:59:36.096Z,46.61
2023-04-09T13:02:21.954Z,46.80
2023-04-09T13:05:07.802Z,46.92
2023-04-09T13:07:53.702Z,47.31
2023-04-09T13:10:40.321Z,46.96
2023-04-09T13:13:26.927Z,46.45
2023-04-09T13:16:12.639Z,46.72
2023-04-09T13:18:58.087Z,47.60
2023-04-09T13:21:43.642Z,47.74
2023-04-09T13:24:29.266Z,46.90
2023-04-09T13:27:16.519Z,47.94
2023-04-09T13:30:02.963Z,48.69
2023-04-09T13:32:48.459Z,46.38
2023-04-09T13:35:34.165Z,46.59
2023-04-09T13:38:19.772Z,46.08
2023-04-09T13:41:06.182Z,46.17
2023-04-09T13:43:51.868Z,45.77
2023-04-09T13:46:37.477Z,46.15
2023-04-09T13:49:23.730Z,45.73
2023-04-09T13:52:10.712Z,45.43
2023-04-09T13:54:56.707Z,45.58
2023-04-09T13:57:42.556Z,46.42
2023-04-09T14:00:27.827Z,47.17
2023-04-09T14:03:14.419Z,49.58
2023-04-09T14:05:59.867Z,50.61
2023-04-09T14:08:45.452Z,50.87
2023-04-09T14:11:31.564Z,51.50
2023-04-09T14:14:18.082Z,51.60
2023-04-09T14:17:03.994Z,52.32
2023-04-09T14:19:50.431Z,51.89
2023-04-09T14:22:36.392Z,52.31
2023-04-09T14:25:22.288Z,52.20
2023-04-09T14:28:08.069Z,51.44
2023-04-09T14:30:53.402Z,52.15
2023-04-09T14:33:39.157Z,52.94
2023-04-09T14:36:27.653Z,51.21
2023-04-09T14:39:15.057Z,50.72
2023-04-09T14:42:02.315Z,51.08
2023-04-09T14:44:48.325Z,50.40
2023-04-09T14:47:33.954Z,51.46
2023-04-09T14:50:19.790Z,51.91
2023-04-09T14:53:05.460Z,50.98
2023-04-09T14:55:51.122Z,51.40
2023-04-09T14:58:36.781Z,51.69
2023-04-09T15:01:22.966Z,52.17
2023-04-09T15:04:08.766Z,51.64
2023-04-09T15:06:55.032Z,51.39
2023-04-09T15:09:41.060Z,52.17
2023-04-09T15:12:33.820Z,52.02
2023-04-09T15:15:22.295Z,52.33
2023-04-09T15:18:08.185Z,52.41
2023-04-09T15:20:53.802Z,52.16
2023-04-09T15:23:39.243Z,52.23
2023-04-09T15:26:27.964Z,52.70
2023-04-09T15:29:13.715Z,53.62
2023-04-09T15:31:59.533Z,52.62
2023-04-09T15:34:45.060Z,52.39
2023-04-09T15:37:30.718Z,53.08
2023-04-09T15:40:16.434Z,53.08
2023-04-09T15:43:02.132Z,53.34
2023-04-09T15:45:51.554Z,53.67
2023-04-09T15:48:37.793Z,53.72
2023-04-09T15:51:23.116Z,53.69
2023-04-09T15:54:08.716Z,53.04
2023-04-09T15:56:54.092Z,53.04
2023-04-09T15:59:39.853Z,52.96
2023-04-09T16:02:33.922Z,53.47
2023-04-09T16:05:41.057Z,53.92
2023-04-09T16:08:28.080Z,54.03
2023-04-09T16:11:13.563Z,53.53
2023-04-09T16:14:01.599Z,53.46
2023-04-09T16:16:52.255Z,53.57
2023-04-09T16:19:37.978Z,53.67
2023-04-09T16:22:30.208Z,53.48
2023-04-09T16:25:21.363Z,53.66
2023-04-09T16:28:10.048Z,53.66
2023-04-09T16:30:56.064Z,53.57
2023-04-09T16:33:41.580Z,53.56
2023-04-09T16:36:28.118Z,53.78
2023-04-09T16:39:15.603Z,53.64
2023-04-09T16:42:01.845Z,54.34
2023-04-09T16:44:47.289Z,54.15
2023-04-09T16:47:33.396Z,54.27
2023-04-09T16:50:20.669Z,54.25
2023-04-09T16:53:06.586Z,54.39
2023-04-09T16:55:52.032Z,54.65
2023-04-09T16:58:37.851Z,55.11
2023-04-09T17:01:23.586Z,55.86
2023-04-09T17:04:09.669Z,56.39
2023-04-09T17:06:55.258Z,56.53
2023-04-09T17:09:41.711Z,56.84
2023-04-09T17:12:28.478Z,57.07
2023-04-09T17:15:15.808Z,57.19
2023-04-09T17:18:02.407Z,57.18
2023-04-09T17:20:49.605Z,57.51
2023-04-09T17:23:35.191Z,57.37
2023-04-09T17:26:20.892Z,57.75
2023-04-09T17:29:07.269Z,57.74
2023-04-09T17:31:53.296Z,57.94
2023-04-09T17:34:38.757Z,57.64
2023-04-09T17:37:24.369Z,57.40
2023-04-09T17:40:12.368Z,57.14
2023-04-09T17:42:58.048Z,57.43
2023-04-09T17:45:43.450Z,57.71
2023-04-09T17:48:31.465Z,57.90
2023-04-09T17:51:19.691Z,58.38
2023-04-09T17:54:05.473Z,58.56
2023-04-09T17:56:52.125Z,58.33
2023-04-09T17:59:38.434Z,58.50
2023-04-09T18:02:23.993Z,58.70
2023-04-09T18:05:10.216Z,59.28
2023-04-09T18:07:56.723Z,59.34
2023-04-09T18:10:42.578Z,59.95
2023-04-09T18:13:28.747Z,60.84
2023-04-09T18:16:14.412Z,61.18
2023-04-09T18:18:59.986Z,61.73
2023-04-09T18:21:45.626Z,62.67
2023-04-09T18:24:32.781Z,62.57
2023-04-09T18:27:18.263Z,62.84
2023-04-09T18:30:04.742Z,63.46
2023-04-09T18:32:51.751Z,63.51
2023-04-09T18:35:38.259Z,63.84
2023-04-09T18:38:24.392Z,64.42
2023-04-09T18:41:12.458Z,64.26
2023-04-09T18:43:57.941Z,64.36
2023-04-09T18:46:44.040Z,64.51
2023-04-09T18:49:31.577Z,65.10
2023-04-09T18:52:17.185Z,65.38
2023-04-09T18:55:02.883Z,66.03
2023-04-09T18:57:48.844Z,65.48
2023-04-09T19:00:35.795Z,66.11
2023-04-09T19:03:22.131Z,66.63
2023-04-09T19:06:19.456Z,66.74
2023-04-09T19:09:05.862Z,67.64
2023-04-09T19:11:51.684Z,67.91
2023-04-09T19:14:37.529Z,68.65
2023-04-09T19:17:23.345Z,68.84
2023-04-09T19:20:09.070Z,69.27
2023-04-09T19:22:55.581Z,69.48
2023-04-09T19:25:41.227Z,69.06
2023-04-09T19:28:27.510Z,69.75
2023-04-09T19:31:14.661Z,70.37
2023-04-09T19:34:00.678Z,70.69
2023-04-09T19:36:46.835Z,71.57
2023-04-09T19:39:32.595Z,72.39
2023-04-09T19:42:19.300Z,72.68
2023-04-09T19:45:05.825Z,73.48
2023-04-09T19:47:52.518Z,73.80
2023-04-09T19:50:43.892Z,74.47
2023-04-09T19:53:30.950Z,73.83
2023-04-09T19:56:17.014Z,74.39
2023-04-09T19:59:04.016Z,75.16
2023-04-09T20:01:49.359Z,75.15
2023-04-09T20:04:35.418Z,75.71
2023-04-09T20:07:20.870Z,75.80
2023-04-09T20:10:07.572Z,75.84
2023-04-09T20:12:54.013Z,76.45
2023-04-09T20:15:39.690Z,76.42
2023-04-09T20:18:25.283Z,77.42
2023-04-09T20:21:14.332Z,78.28
2023-04-09T20:24:00.635Z,77.94
2023-04-09T20:26:47.738Z,78.34
2023-04-09T20:29:33.945Z,78.56
2023-04-09T20:32:19.952Z,79.26
2023-04-09T20:35:08.316Z,79.01
2023-04-09T20:37:55.123Z,79.44
2023-04-09T20:40:40.674Z,79.25
2023-04-09T20:43:26.371Z,79.67
2023-04-09T20:46:12.452Z,79.78
2023-04-09T20:48:58.349Z,80.26
2023-04-09T20:51:44.645Z,80.80
2023-04-09T20:54:30.877Z,80.94
2023-04-09T20:57:16.438Z,80.72
2023-04-09T21:00:02.133Z,80.54
2023-04-09T21:02:47.830Z,80.69
2023-04-09T21:05:33.464Z,80.75
2023-04-09T21:08:18.861Z,80.71
2023-04-09T21:11:04.601Z,80.79
2023-04-09T21:13:54.448Z,80.61
2023-04-09T21:16:40.999Z,80.52
2023-04-09T21:19:26.536Z,80.42
2023-04-09T21:22:12.125Z,80.38
2023-04-09T21:24:57.557Z,79.88
2023-04-09T21:27:42.847Z,80.35
2023-04-09T21:30:29.192Z,79.99
2023-04-09T21:33:14.496Z,80.38
2023-04-09T21:36:00.140Z,80.28
2023-04-09T21:38:45.737Z,80.40
2023-04-09T21:41:31.409Z,80.31
2023-04-09T21:44:17.193Z,80.30
2023-04-09T21:47:07.525Z,80.59
2023-04-09T21:49:54.098Z,80.73
2023-04-09T21:52:39.930Z,80.64
2023-04-09T21:55:25.353Z,80.58
2023-04-09T21:58:12.002Z,81.24
2023-04-09T22:00:57.482Z,81.33
2023-04-09T22:03:44.873Z,81.53
2023-04-09T22:06:31.053Z,82.34
2023-04-09T22:09:16.926Z,82.32
2023-04-09T22:12:03.048Z,82.54
2023-04-09T22:14:49.129Z,82.64
2023-04-09T22:17:34.591Z,82.75
2023-04-09T22:20:20.133Z,83.25
2023-04-09T22:23:05.451Z,83.21
2023-04-09T22:25:50.940Z,82.83
2023-04-09T22:28:36.362Z,83.17
2023-04-09T22:31:22.031Z,83.61
2023-04-09T22:34:20.076Z,83.34
2023-04-09T22:37:06.968Z,83.36
2023-04-09T22:39:52.319Z,83.44
2023-04-09T22:42:37.744Z,84.14
2023-04-09T22:45:23.017Z,84.08
2023-04-09T22:48:08.873Z,84.05
2023-04-09T22:50:54.638Z,84.03
2023-04-09T22:53:43.048Z,84.39
2023-04-09T22:56:28.817Z,84.46
2023-04-09T22:59:15.598Z,85.24
2023-04-09T23:02:01.327Z,85.27
2023-04-09T23:04:48.216Z,86.03
2023-04-09T23:07:34.019Z,86.16
2023-04-09T23:10:19.791Z,86.38
2023-04-09T23:13:05.313Z,86.61
2023-04-09T23:15:51.046Z,86.96
2023-04-09T23:18:37.162Z,87.09
2023-04-09T23:21:22.578Z,87.70
2023-04-09T23:24:07.963Z,88.16
2023-04-09T23:26:53.589Z,88.62
2023-04-09T23:29:38.887Z,88.82
2023-04-09T23:32:24.905Z,89.47
2023-04-09T23:35:11.465Z,89.71
2023-04-09T23:37:56.997Z,89.54
2023-04-09T23:40:43.077Z,89.52
2023-04-09T23:43:28.786Z,89.24
2023-04-09T23:46:14.475Z,89.27
2023-04-09T23:49:00.378Z,89.65
2023-04-09T23:51:46.251Z,89.33
2023-04-09T23:54:32.710Z,89.24
2023-04-09T23:57:18.287Z,89.30
